SPAER LHDC-EDNY
Flight info
| Callsign | SPAER |
|---|---|
| Flight time | 1h 2m |
| Altitude | 30000 |
| Route | EBES DCT TEKNO DCT NEMAL DCT TRAUN/N0250F120 L856 RAVED DCT UMTEX |
| Aircraft | SF50/L-SDGRWY/L |
Departure
| Time | 2026-04-21 13:17 |
|---|---|
| Airport | Debrecen International Airport (LHDC) |
Arrival
| Time | 2026-04-21 14:19 |
|---|---|
| Airport | Bodensee Airport Friedrichshafen (EDNY) |
| Time | Latitude | Longitude | Altitude | Speed | Heading |
|---|---|---|---|---|---|
| 2026-04-21 13:16 | 47.48158 | 21.60334 | 354 ft | 0 kts | 48° |
| 2026-04-21 13:16 | 47.48241 | 21.60470 | 356 ft | 53 kts | 47° |
| 2026-04-21 13:17 | 47.48622 | 21.61126 | 497 ft | 104 kts | 46° |
| 2026-04-21 13:17 | 47.49124 | 21.62015 | 1011 ft | 127 kts | 47° |
| 2026-04-21 13:17 | 47.49886 | 21.62764 | 1869 ft | 138 kts | 7° |
| 2026-04-21 13:17 | 47.50898 | 21.62417 | 2697 ft | 158 kts | 333° |
| 2026-04-21 13:18 | 47.51487 | 21.61249 | 4158 ft | 145 kts | 294° |
| 2026-04-21 13:18 | 47.51464 | 21.59646 | 4992 ft | 172 kts | 257° |
| 2026-04-21 13:18 | 47.50757 | 21.58106 | 5774 ft | 191 kts | 222° |
| 2026-04-21 13:18 | 47.49530 | 21.57188 | 6447 ft | 209 kts | 195° |
| 2026-04-21 13:19 | 47.48050 | 21.56774 | 6976 ft | 224 kts | 201° |
| 2026-04-21 13:19 | 47.46912 | 21.55259 | 7475 ft | 232 kts | 246° |
| 2026-04-21 13:19 | 47.46787 | 21.52985 | 8182 ft | 221 kts | 290° |
| 2026-04-21 13:19 | 47.47521 | 21.51054 | 8974 ft | 215 kts | 305° |
| 2026-04-21 13:20 | 47.48041 | 21.49769 | 9519 ft | 215 kts | 300° |
| 2026-04-21 13:20 | 47.48776 | 21.47054 | 10535 ft | 215 kts | 286° |
| 2026-04-21 13:20 | 47.48982 | 21.44863 | 11284 ft | 215 kts | 277° |
| 2026-04-21 13:20 | 47.49055 | 21.42677 | 12051 ft | 211 kts | 277° |
| 2026-04-21 13:21 | 47.49150 | 21.40532 | 12828 ft | 206 kts | 277° |
| 2026-04-21 13:21 | 47.49261 | 21.38448 | 13632 ft | 200 kts | 278° |
| 2026-04-21 13:21 | 47.49363 | 21.36425 | 14378 ft | 194 kts | 278° |
| 2026-04-21 13:21 | 47.49461 | 21.34467 | 15113 ft | 188 kts | 278° |
| 2026-04-21 13:22 | 47.49523 | 21.33209 | 15608 ft | 183 kts | 279° |
| 2026-04-21 13:22 | 47.49615 | 21.31375 | 16370 ft | 175 kts | 278° |
| 2026-04-21 13:22 | 47.49701 | 21.29631 | 17133 ft | 165 kts | 277° |
| 2026-04-21 13:22 | 47.49805 | 21.27490 | 18184 ft | 150 kts | 278° |
| 2026-04-21 13:23 | 47.49889 | 21.25895 | 18423 ft | 173 kts | 276° |
| 2026-04-21 13:23 | 47.49960 | 21.24608 | 18367 ft | 198 kts | 276° |
| 2026-04-21 13:23 | 47.50063 | 21.22447 | 18273 ft | 227 kts | 277° |
| 2026-04-21 13:23 | 47.50181 | 21.20003 | 18129 ft | 248 kts | 276° |
| 2026-04-21 13:24 | 47.50305 | 21.17376 | 17959 ft | 264 kts | 275° |
| 2026-04-21 13:24 | 47.50441 | 21.14592 | 17802 ft | 277 kts | 276° |
| 2026-04-21 13:24 | 47.50579 | 21.11711 | 17803 ft | 285 kts | 275° |
| 2026-04-21 13:24 | 47.50720 | 21.08762 | 17802 ft | 290 kts | 276° |
| 2026-04-21 13:25 | 47.50863 | 21.05762 | 17801 ft | 294 kts | 276° |
| 2026-04-21 13:25 | 47.51007 | 21.02737 | 17803 ft | 296 kts | 275° |
| 2026-04-21 13:25 | 47.51150 | 20.99685 | 17803 ft | 298 kts | 276° |
| 2026-04-21 13:25 | 47.51294 | 20.96622 | 17802 ft | 299 kts | 275° |
| 2026-04-21 13:26 | 47.51437 | 20.93541 | 17804 ft | 301 kts | 276° |
| 2026-04-21 13:26 | 47.51581 | 20.90442 | 17800 ft | 302 kts | 275° |
| 2026-04-21 13:26 | 47.51724 | 20.87339 | 17804 ft | 303 kts | 275° |
| 2026-04-21 13:26 | 47.51865 | 20.84230 | 17800 ft | 303 kts | 275° |
| 2026-04-21 13:27 | 47.52007 | 20.81113 | 17800 ft | 303 kts | 275° |
| 2026-04-21 13:27 | 47.52147 | 20.78039 | 17799 ft | 303 kts | 276° |
| 2026-04-21 13:27 | 47.52286 | 20.74931 | 17799 ft | 303 kts | 276° |
| 2026-04-21 13:27 | 47.52426 | 20.71819 | 17799 ft | 303 kts | 276° |
| 2026-04-21 13:28 | 47.52565 | 20.68706 | 17798 ft | 303 kts | 276° |
| 2026-04-21 13:28 | 47.52702 | 20.65592 | 17798 ft | 303 kts | 275° |
| 2026-04-21 13:28 | 47.52837 | 20.62474 | 17801 ft | 304 kts | 275° |
| 2026-04-21 13:28 | 47.52973 | 20.59344 | 17800 ft | 304 kts | 275° |
| 2026-04-21 13:29 | 47.53109 | 20.56225 | 17802 ft | 304 kts | 275° |
| 2026-04-21 13:29 | 47.53244 | 20.53108 | 17802 ft | 304 kts | 275° |
| 2026-04-21 13:29 | 47.53419 | 20.48979 | 17802 ft | 303 kts | 276° |
| 2026-04-21 13:29 | 47.53509 | 20.46874 | 17806 ft | 303 kts | 275° |
| 2026-04-21 13:30 | 47.53640 | 20.43769 | 17788 ft | 302 kts | 276° |
| 2026-04-21 13:30 | 47.53769 | 20.40666 | 17790 ft | 302 kts | 275° |
| 2026-04-21 13:30 | 47.53897 | 20.37613 | 17788 ft | 302 kts | 275° |
| 2026-04-21 13:30 | 47.54025 | 20.34515 | 17790 ft | 301 kts | 275° |
| 2026-04-21 13:31 | 47.54152 | 20.31433 | 17893 ft | 298 kts | 275° |
| 2026-04-21 13:31 | 47.54276 | 20.28390 | 18026 ft | 294 kts | 275° |
| 2026-04-21 13:31 | 47.54399 | 20.25378 | 18165 ft | 291 kts | 275° |
| 2026-04-21 13:31 | 47.54520 | 20.22396 | 18299 ft | 289 kts | 275° |
| 2026-04-21 13:32 | 47.54638 | 20.19436 | 18429 ft | 287 kts | 275° |
| 2026-04-21 13:32 | 47.54755 | 20.16478 | 18547 ft | 286 kts | 275° |
| 2026-04-21 13:32 | 47.54872 | 20.13536 | 18668 ft | 285 kts | 275° |
| 2026-04-21 13:32 | 47.54987 | 20.10604 | 18789 ft | 286 kts | 275° |
| 2026-04-21 13:33 | 47.55103 | 20.07664 | 18909 ft | 286 kts | 275° |
| 2026-04-21 13:33 | 47.55216 | 20.04718 | 18980 ft | 287 kts | 275° |
| 2026-04-21 13:33 | 47.55331 | 20.01755 | 18981 ft | 290 kts | 275° |
| 2026-04-21 13:33 | 47.55446 | 19.98765 | 18982 ft | 291 kts | 275° |
| 2026-04-21 13:34 | 47.55559 | 19.95767 | 18979 ft | 292 kts | 275° |
| 2026-04-21 13:34 | 47.55673 | 19.92756 | 18980 ft | 293 kts | 275° |
| 2026-04-21 13:34 | 47.55786 | 19.89736 | 18980 ft | 294 kts | 275° |
| 2026-04-21 13:34 | 47.55899 | 19.86685 | 18788 ft | 301 kts | 275° |
| 2026-04-21 13:35 | 47.56016 | 19.83566 | 18572 ft | 306 kts | 275° |
| 2026-04-21 13:35 | 47.56132 | 19.80394 | 18356 ft | 311 kts | 275° |
| 2026-04-21 13:35 | 47.56248 | 19.77186 | 18180 ft | 312 kts | 275° |
| 2026-04-21 13:35 | 47.56362 | 19.74007 | 18198 ft | 308 kts | 275° |
| 2026-04-21 13:36 | 47.56475 | 19.70851 | 18199 ft | 305 kts | 275° |
| 2026-04-21 13:36 | 47.56587 | 19.67724 | 18200 ft | 303 kts | 274° |
| 2026-04-21 13:36 | 47.56696 | 19.64613 | 18202 ft | 302 kts | 274° |
| 2026-04-21 13:36 | 47.56806 | 19.61508 | 18203 ft | 302 kts | 275° |
| 2026-04-21 13:37 | 47.56912 | 19.58448 | 18204 ft | 302 kts | 274° |
| 2026-04-21 13:37 | 47.57019 | 19.55309 | 18204 ft | 301 kts | 274° |
| 2026-04-21 13:37 | 47.57124 | 19.52262 | 18205 ft | 300 kts | 274° |
| 2026-04-21 13:37 | 47.57229 | 19.49179 | 18204 ft | 299 kts | 274° |
| 2026-04-21 13:38 | 47.57333 | 19.46101 | 18211 ft | 299 kts | 274° |
| 2026-04-21 13:38 | 47.57434 | 19.43033 | 18212 ft | 299 kts | 274° |
| 2026-04-21 13:38 | 47.57536 | 19.39958 | 18214 ft | 299 kts | 274° |
| 2026-04-21 13:38 | 47.57638 | 19.36884 | 18214 ft | 299 kts | 274° |
| 2026-04-21 13:39 | 47.57738 | 19.33813 | 18214 ft | 299 kts | 274° |
| 2026-04-21 13:39 | 47.57837 | 19.30736 | 18213 ft | 299 kts | 274° |
| 2026-04-21 13:39 | 47.57937 | 19.27667 | 18213 ft | 298 kts | 274° |
| 2026-04-21 13:39 | 47.58033 | 19.24602 | 18214 ft | 298 kts | 274° |
| 2026-04-21 13:40 | 47.58129 | 19.21533 | 18210 ft | 298 kts | 274° |
| 2026-04-21 13:40 | 47.58226 | 19.18469 | 18209 ft | 298 kts | 274° |
| 2026-04-21 13:40 | 47.58321 | 19.15404 | 18210 ft | 297 kts | 274° |
| 2026-04-21 13:40 | 47.58415 | 19.12346 | 18210 ft | 297 kts | 274° |
| 2026-04-21 13:41 | 47.58509 | 19.09281 | 18212 ft | 297 kts | 274° |
| 2026-04-21 13:41 | 47.58601 | 19.06224 | 18212 ft | 297 kts | 274° |
| 2026-04-21 13:41 | 47.58692 | 19.03160 | 18211 ft | 297 kts | 274° |
| 2026-04-21 13:41 | 47.58782 | 19.00102 | 18211 ft | 297 kts | 274° |
| 2026-04-21 13:42 | 47.58872 | 18.97042 | 18206 ft | 297 kts | 274° |
| 2026-04-21 13:42 | 47.58961 | 18.93985 | 18208 ft | 297 kts | 274° |
| 2026-04-21 13:42 | 47.59050 | 18.90922 | 18207 ft | 297 kts | 274° |
| 2026-04-21 13:42 | 47.59137 | 18.87864 | 18207 ft | 297 kts | 274° |
| 2026-04-21 13:43 | 47.59223 | 18.84844 | 18209 ft | 297 kts | 274° |
| 2026-04-21 13:43 | 47.59310 | 18.81779 | 18208 ft | 297 kts | 274° |
| 2026-04-21 13:43 | 47.59394 | 18.78722 | 18208 ft | 298 kts | 274° |
| 2026-04-21 13:43 | 47.59478 | 18.75658 | 18207 ft | 297 kts | 274° |
| 2026-04-21 13:44 | 47.59562 | 18.72596 | 18210 ft | 297 kts | 274° |
| 2026-04-21 13:44 | 47.59644 | 18.69541 | 18214 ft | 297 kts | 274° |
| 2026-04-21 13:44 | 47.59725 | 18.66485 | 18215 ft | 297 kts | 274° |
| 2026-04-21 13:44 | 47.59807 | 18.63429 | 18215 ft | 297 kts | 274° |
| 2026-04-21 13:45 | 47.59887 | 18.60370 | 18217 ft | 297 kts | 274° |
| 2026-04-21 13:45 | 47.59965 | 18.57311 | 18218 ft | 297 kts | 274° |
| 2026-04-21 13:45 | 47.60044 | 18.54249 | 18224 ft | 297 kts | 274° |
| 2026-04-21 13:45 | 47.60124 | 18.51193 | 18224 ft | 297 kts | 274° |
| 2026-04-21 13:46 | 47.60200 | 18.48135 | 18220 ft | 297 kts | 273° |
| 2026-04-21 13:46 | 47.60275 | 18.45080 | 18219 ft | 297 kts | 273° |
| 2026-04-21 13:46 | 47.60350 | 18.42020 | 18221 ft | 297 kts | 274° |
| 2026-04-21 13:46 | 47.60425 | 18.38964 | 18221 ft | 297 kts | 273° |
| 2026-04-21 13:47 | 47.60498 | 18.35907 | 18225 ft | 297 kts | 273° |
| 2026-04-21 13:47 | 47.60570 | 18.32854 | 18225 ft | 297 kts | 273° |
| 2026-04-21 13:47 | 47.60642 | 18.29793 | 18227 ft | 297 kts | 273° |
| 2026-04-21 13:47 | 47.60714 | 18.26773 | 18225 ft | 297 kts | 273° |
| 2026-04-21 13:48 | 47.60783 | 18.23717 | 18225 ft | 296 kts | 273° |
| 2026-04-21 13:48 | 47.60853 | 18.20668 | 18227 ft | 296 kts | 273° |
| 2026-04-21 13:48 | 47.60921 | 18.17622 | 18228 ft | 296 kts | 273° |
| 2026-04-21 13:48 | 47.60989 | 18.14575 | 18227 ft | 295 kts | 273° |
| 2026-04-21 13:49 | 47.61056 | 18.11534 | 18228 ft | 295 kts | 273° |
| 2026-04-21 13:49 | 47.61121 | 18.08493 | 18229 ft | 295 kts | 273° |
| 2026-04-21 13:49 | 47.61187 | 18.05450 | 18228 ft | 295 kts | 273° |
| 2026-04-21 13:49 | 47.61251 | 18.02409 | 18231 ft | 295 kts | 273° |
| 2026-04-21 13:50 | 47.61314 | 17.99372 | 18231 ft | 295 kts | 273° |
| 2026-04-21 13:50 | 47.61377 | 17.96334 | 18231 ft | 295 kts | 273° |
| 2026-04-21 13:50 | 47.61439 | 17.93293 | 18233 ft | 295 kts | 273° |
| 2026-04-21 13:50 | 47.61499 | 17.90251 | 18233 ft | 296 kts | 273° |
| 2026-04-21 13:51 | 47.61560 | 17.87208 | 18231 ft | 295 kts | 273° |
| 2026-04-21 13:51 | 47.61619 | 17.84169 | 18236 ft | 295 kts | 273° |
| 2026-04-21 13:51 | 47.61678 | 17.81128 | 18242 ft | 295 kts | 273° |
| 2026-04-21 13:51 | 47.61737 | 17.78086 | 18241 ft | 296 kts | 273° |
| 2026-04-21 13:52 | 47.61793 | 17.75038 | 18241 ft | 296 kts | 273° |
| 2026-04-21 13:52 | 47.61849 | 17.71993 | 18241 ft | 295 kts | 273° |
| 2026-04-21 13:52 | 47.61905 | 17.68943 | 18241 ft | 295 kts | 273° |
| 2026-04-21 13:52 | 47.61959 | 17.65946 | 18241 ft | 295 kts | 273° |
| 2026-04-21 13:53 | 47.62013 | 17.62904 | 18241 ft | 295 kts | 273° |
| 2026-04-21 13:53 | 47.62066 | 17.59870 | 18240 ft | 295 kts | 273° |
| 2026-04-21 13:53 | 47.62118 | 17.56828 | 18239 ft | 295 kts | 272° |
| 2026-04-21 13:53 | 47.62169 | 17.53785 | 18240 ft | 295 kts | 272° |
| 2026-04-21 13:54 | 47.62221 | 17.50744 | 18241 ft | 295 kts | 272° |
| 2026-04-21 13:54 | 47.62270 | 17.47702 | 18243 ft | 295 kts | 273° |
| 2026-04-21 13:54 | 47.62318 | 17.44658 | 18249 ft | 296 kts | 273° |
| 2026-04-21 13:54 | 47.62369 | 17.41606 | 18239 ft | 296 kts | 274° |
| 2026-04-21 13:55 | 47.62587 | 17.38603 | 18241 ft | 292 kts | 280° |
| 2026-04-21 13:55 | 47.62877 | 17.35622 | 18241 ft | 292 kts | 279° |
| 2026-04-21 13:55 | 47.63143 | 17.32632 | 18248 ft | 292 kts | 279° |
| 2026-04-21 13:55 | 47.63412 | 17.29645 | 18247 ft | 292 kts | 279° |
| 2026-04-21 13:56 | 47.63685 | 17.26694 | 18248 ft | 293 kts | 279° |
| 2026-04-21 13:56 | 47.63962 | 17.23698 | 18249 ft | 293 kts | 279° |
| 2026-04-21 13:56 | 47.64233 | 17.20701 | 18251 ft | 293 kts | 279° |
| 2026-04-21 13:56 | 47.64504 | 17.17706 | 18258 ft | 293 kts | 279° |
| 2026-04-21 13:57 | 47.64775 | 17.14710 | 18259 ft | 293 kts | 279° |
| 2026-04-21 13:57 | 47.65046 | 17.11715 | 18259 ft | 293 kts | 279° |
| 2026-04-21 13:57 | 47.65316 | 17.08720 | 18260 ft | 292 kts | 279° |
| 2026-04-21 13:57 | 47.65584 | 17.05730 | 18258 ft | 293 kts | 279° |
| 2026-04-21 13:58 | 47.65851 | 17.02737 | 18258 ft | 293 kts | 279° |
| 2026-04-21 13:58 | 47.66118 | 16.99739 | 18265 ft | 292 kts | 279° |
| 2026-04-21 13:58 | 47.66385 | 16.96750 | 18267 ft | 293 kts | 279° |
| 2026-04-21 13:58 | 47.66650 | 16.93752 | 18267 ft | 294 kts | 279° |
| 2026-04-21 13:59 | 47.66916 | 16.90749 | 18269 ft | 294 kts | 279° |
| 2026-04-21 13:59 | 47.67179 | 16.87750 | 18270 ft | 293 kts | 279° |
| 2026-04-21 13:59 | 47.67443 | 16.84751 | 18270 ft | 293 kts | 279° |
| 2026-04-21 13:59 | 47.67705 | 16.81759 | 18271 ft | 292 kts | 279° |
| 2026-04-21 14:00 | 47.67963 | 16.78810 | 18271 ft | 292 kts | 279° |
| 2026-04-21 14:00 | 47.68222 | 16.75824 | 18269 ft | 291 kts | 279° |
| 2026-04-21 14:00 | 47.68481 | 16.72839 | 18272 ft | 292 kts | 279° |
| 2026-04-21 14:00 | 47.68739 | 16.69858 | 18269 ft | 291 kts | 279° |
| 2026-04-21 14:01 | 47.68996 | 16.66872 | 18281 ft | 292 kts | 279° |
| 2026-04-21 14:01 | 47.69253 | 16.63883 | 18280 ft | 292 kts | 279° |
| 2026-04-21 14:01 | 47.69509 | 16.60885 | 18284 ft | 292 kts | 279° |
| 2026-04-21 14:01 | 47.69766 | 16.57892 | 18284 ft | 292 kts | 279° |
| 2026-04-21 14:02 | 47.69934 | 16.55910 | 18280 ft | 292 kts | 279° |
| 2026-04-21 14:02 | 47.70274 | 16.51915 | 18282 ft | 291 kts | 279° |
| 2026-04-21 14:02 | 47.70526 | 16.48933 | 18289 ft | 290 kts | 279° |
| 2026-04-21 14:03 | 47.71027 | 16.42971 | 18291 ft | 291 kts | 279° |
| 2026-04-21 14:03 | 47.71275 | 16.40024 | 18292 ft | 291 kts | 279° |
| 2026-04-21 14:03 | 47.71525 | 16.37035 | 18291 ft | 292 kts | 279° |
| 2026-04-21 14:03 | 47.71775 | 16.34036 | 18295 ft | 292 kts | 279° |
| 2026-04-21 14:04 | 47.72023 | 16.31040 | 18298 ft | 292 kts | 279° |
| 2026-04-21 14:04 | 47.72272 | 16.28048 | 18297 ft | 292 kts | 278° |
| 2026-04-21 14:04 | 47.72519 | 16.25047 | 18301 ft | 292 kts | 279° |
| 2026-04-21 14:04 | 47.72764 | 16.22049 | 18301 ft | 293 kts | 279° |
| 2026-04-21 14:05 | 47.73010 | 16.19054 | 18297 ft | 292 kts | 279° |
| 2026-04-21 14:05 | 47.73255 | 16.16067 | 18291 ft | 292 kts | 279° |
| 2026-04-21 14:05 | 47.73498 | 16.13071 | 18290 ft | 292 kts | 279° |
| 2026-04-21 14:05 | 47.73741 | 16.10075 | 18292 ft | 292 kts | 279° |
| 2026-04-21 14:06 | 47.73981 | 16.07109 | 18366 ft | 289 kts | 278° |
| 2026-04-21 14:06 | 47.74217 | 16.04157 | 18474 ft | 288 kts | 279° |
| 2026-04-21 14:06 | 47.74456 | 16.01201 | 18491 ft | 289 kts | 279° |
| 2026-04-21 14:06 | 47.74694 | 15.98234 | 18489 ft | 290 kts | 278° |
| 2026-04-21 14:07 | 47.74932 | 15.95250 | 18487 ft | 291 kts | 279° |
| 2026-04-21 14:07 | 47.75169 | 15.92266 | 18491 ft | 291 kts | 279° |
| 2026-04-21 14:07 | 47.75406 | 15.89271 | 18488 ft | 291 kts | 279° |
| 2026-04-21 14:07 | 47.75644 | 15.86291 | 18487 ft | 290 kts | 278° |
| 2026-04-21 14:08 | 47.75875 | 15.83303 | 18494 ft | 291 kts | 278° |
| 2026-04-21 14:08 | 47.76109 | 15.80317 | 18493 ft | 291 kts | 278° |
| 2026-04-21 14:08 | 47.76345 | 15.77326 | 18493 ft | 292 kts | 278° |
| 2026-04-21 14:08 | 47.76581 | 15.74323 | 18485 ft | 293 kts | 278° |
| 2026-04-21 14:09 | 47.76812 | 15.71313 | 18484 ft | 293 kts | 278° |
| 2026-04-21 14:09 | 47.77047 | 15.68311 | 18479 ft | 292 kts | 278° |
| 2026-04-21 14:09 | 47.77278 | 15.65315 | 18491 ft | 292 kts | 278° |
| 2026-04-21 14:09 | 47.77507 | 15.62320 | 18490 ft | 291 kts | 278° |
| 2026-04-21 14:10 | 47.77657 | 15.60344 | 18497 ft | 291 kts | 278° |
| 2026-04-21 14:10 | 47.77965 | 15.56337 | 18492 ft | 292 kts | 278° |
| 2026-04-21 14:10 | 47.80644 | 15.20402 | 18494 ft | 295 kts | 277° |
| 2026-04-21 14:10 | 47.84150 | 14.71626 | 18508 ft | 299 kts | 277° |
| 2026-04-21 14:11 | 47.87414 | 14.22586 | 18508 ft | 296 kts | 279° |
| 2026-04-21 14:11 | 47.90240 | 13.73598 | 18490 ft | 296 kts | 276° |
| 2026-04-21 14:11 | 47.93608 | 13.24916 | 18484 ft | 297 kts | 276° |
| 2026-04-21 14:11 | 47.95613 | 12.92540 | 18480 ft | 296 kts | 275° |
| 2026-04-21 14:12 | 47.96490 | 12.43783 | 18472 ft | 303 kts | 257° |
| 2026-04-21 14:12 | 47.91212 | 11.95632 | 18470 ft | 292 kts | 268° |
| 2026-04-21 14:12 | 47.86796 | 11.47298 | 18458 ft | 299 kts | 259° |
| 2026-04-21 14:12 | 47.81572 | 10.99001 | 23519 ft | 298 kts | 266° |
| 2026-04-21 14:13 | 47.80695 | 10.89439 | 23051 ft | 307 kts | 260° |
| 2026-04-21 14:13 | 47.80227 | 10.86313 | 21751 ft | 304 kts | 260° |
| 2026-04-21 14:13 | 47.79879 | 10.83291 | 20451 ft | 290 kts | 264° |
| 2026-04-21 14:13 | 47.79611 | 10.80377 | 19204 ft | 280 kts | 263° |
| 2026-04-21 14:14 | 47.79317 | 10.77558 | 18267 ft | 266 kts | 263° |
| 2026-04-21 14:14 | 47.79023 | 10.75042 | 17608 ft | 239 kts | 263° |
| 2026-04-21 14:14 | 47.77211 | 10.58480 | 10697 ft | 212 kts | 261° |
| 2026-04-21 14:14 | 47.74654 | 10.35756 | 4994 ft | 95 kts | 267° |
| 2026-04-21 14:15 | 47.74550 | 10.34659 | 5195 ft | 118 kts | 276° |
| 2026-04-21 14:15 | 47.74560 | 10.33451 | 5722 ft | 123 kts | 270° |
| 2026-04-21 14:15 | 47.74505 | 10.26478 | 6071 ft | 254 kts | 272° |
| 2026-04-21 14:15 | 47.73343 | 9.87597 | 4660 ft | 212 kts | 268° |
| 2026-04-21 14:16 | 47.78515 | 9.59015 | 4658 ft | 171 kts | 3° |
| 2026-04-21 14:16 | 47.85157 | 9.62961 | 4646 ft | 181 kts | 39° |
| 2026-04-21 14:16 | 47.85708 | 9.64599 | 4648 ft | 186 kts | 85° |
| 2026-04-21 14:16 | 47.83793 | 9.75495 | 4662 ft | 191 kts | 105° |
| 2026-04-21 14:17 | 47.79344 | 9.63333 | 4998 ft | 207 kts | 254° |
| 2026-04-21 14:17 | 47.71402 | 9.52249 | 2810 ft | 259 kts | 199° |
| 2026-04-21 14:17 | 47.69847 | 9.52532 | 2574 ft | 207 kts | 146° |
| 2026-04-21 14:17 | 47.68778 | 9.53728 | 1967 ft | 183 kts | 149° |
| 2026-04-21 14:18 | 47.67626 | 9.53675 | 1870 ft | 164 kts | 201° |
| 2026-04-21 14:18 | 47.66768 | 9.52970 | 1868 ft | 123 kts | 224° |
| 2026-04-21 14:18 | 47.66683 | 9.51851 | 1577 ft | 125 kts | 287° |
| 2026-04-21 14:18 | 47.67119 | 9.51022 | 1534 ft | 92 kts | 25° |
| 2026-04-21 14:19 | 47.67383 | 9.51778 | 1356 ft | 73 kts | 57° |
| 2026-04-21 14:19 | 47.67410 | 9.52118 | 1360 ft | 27 kts | 166° |
| 2026-04-21 14:19 | 47.67281 | 9.52166 | 1362 ft | 0 kts | 147° |